Time;durP1;ratioP1;P1;durP2;ratioP2;P2;SDS_P1;SDS_P2;PMS_P1;PMS_P2;Temp;Humidity;BMP_temperature;BMP_pressure;BME280_temperature;BME280_humidity;BME280_pressure;Samples;Min_cycle;Max_cycle;Signal;HPM_P1;HPM_P2
2023/09/03 04:00:21;;;;;;;;;;;12.00;99.90;;;;;;6004668;23;19921;-75
2023/09/03 04:02:46;;;;;;;;;;;12.00;99.90;;;;;;4991350;28;20276;-78
2023/09/03 04:05:12;;;;;;;;;;;11.90;99.90;;;;;;5007917;28;19969;-78
2023/09/03 04:07:37;;;;;;;;;;;11.90;99.90;;;;;;4975417;28;19953;-81
2023/09/03 04:10:03;;;;;;;;;;;11.80;99.90;;;;;;4975583;28;19945;-79
2023/09/03 04:12:28;;;;;;;;;;;11.70;99.90;;;;;;5007604;28;19972;-77
2023/09/03 04:14:54;;;;;;;;;;;11.70;99.90;;;;;;4975437;28;19926;-76
2023/09/03 04:17:19;;;;;;;;;;;11.70;99.90;;;;;;5007654;28;19922;-77
2023/09/03 04:19:47;;;;;;;;;;;11.70;99.90;;;;;;4975113;28;19926;-77
2023/09/03 04:22:12;;;;;;;;;;;11.80;99.90;;;;;;4975048;28;19941;-75
2023/09/03 04:24:38;;;;;;;;;;;11.90;99.90;;;;;;4975295;28;19922;-75
2023/09/03 04:27:04;;;;;;;;;;;11.90;99.90;;;;;;4976672;28;20394;-79
2023/09/03 04:29:29;;;;;;;;;;;11.90;99.90;;;;;;4974894;28;19922;-76
2023/09/03 04:31:55;;;;;;;;;;;11.90;99.90;;;;;;5007208;28;20009;-79
2023/09/03 04:34:20;;;;;;;;;;;12.00;99.90;;;;;;5007297;28;20009;-79
2023/09/03 04:36:46;;;;;;;;;;;11.90;99.90;;;;;;4976501;28;19929;-77
2023/09/03 04:39:11;;;;;;;;;;;12.00;99.90;;;;;;4976408;28;19988;-76
2023/09/03 04:41:38;;;;;;;;;;;11.90;99.90;;;;;;5007551;28;19922;-79
2023/09/03 04:44:07;;;;;;;;;;;11.80;99.90;;;;;;5007509;28;19965;-76
2023/09/03 04:46:33;;;;;;;;;;;11.70;99.90;;;;;;4974568;28;19922;-78
2023/09/03 04:48:58;;;;;;;;;;;11.60;99.90;;;;;;4990916;28;19972;-78
2023/09/03 04:51:24;;;;;;;;;;;11.60;99.90;;;;;;4990665;28;19932;-81
2023/09/03 04:53:49;;;;;;;;;;;11.50;99.90;;;;;;5007593;28;19922;-80
2023/09/03 04:56:15;;;;;;;;;;;11.50;99.90;;;;;;5006795;28;19972;-75
2023/09/03 04:58:40;;;;;;;;;;;11.50;99.90;;;;;;5006767;28;19925;-79
2023/09/03 05:01:16;;;;;;;;;;;11.50;99.90;;;;;;4973867;28;19998;-78
2023/09/03 05:03:41;;;;;;;;;;;11.60;99.90;;;;;;4974588;28;19945;-78
2023/09/03 05:06:11;;;;;;;;;;;11.60;99.90;;;;;;5006766;28;19926;-77
2023/09/03 05:08:36;;;;;;;;;;;11.60;99.90;;;;;;4974117;28;20379;-75
2023/09/03 05:11:11;;;;;;;;;;;11.60;99.90;;;;;;5006683;28;19929;-81
2023/09/03 05:13:37;;;;;;;;;;;11.60;99.90;;;;;;5006859;28;20379;-77
2023/09/03 05:16:04;;;;;;;;;;;11.60;99.90;;;;;;4973606;28;20294;-75
2023/09/03 05:18:30;;;;;;;;;;;11.60;99.90;;;;;;5006451;28;20349;-78
2023/09/03 05:20:56;;;;;;;;;;;11.60;99.90;;;;;;4974474;28;19932;-78
2023/09/03 05:23:22;;;;;;;;;;;11.70;99.90;;;;;;4973972;28;19922;-77
2023/09/03 05:25:47;;;;;;;;;;;11.70;99.90;;;;;;4973832;28;20000;-76
2023/09/03 05:28:13;;;;;;;;;;;11.70;99.90;;;;;;5006426;28;20372;-79
2023/09/03 05:30:38;;;;;;;;;;;11.70;99.90;;;;;;5006660;28;19969;-77
2023/09/03 05:33:04;;;;;;;;;;;11.70;99.90;;;;;;5006581;28;19926;-76
2023/09/03 05:35:30;;;;;;;;;;;11.70;99.90;;;;;;4974175;28;19922;-78
2023/09/03 05:37:55;;;;;;;;;;;11.80;99.90;;;;;;5006378;28;20434;-81
2023/09/03 05:40:21;;;;;;;;;;;11.70;99.90;;;;;;4974889;28;19949;-76
2023/09/03 05:42:47;;;;;;;;;;;11.70;99.90;;;;;;5006208;28;19922;-82
2023/09/03 05:45:13;;;;;;;;;;;11.70;99.90;;;;;;4973723;28;19926;-79
2023/09/03 05:47:38;;;;;;;;;;;11.70;99.90;;;;;;5006251;28;19973;-77
2023/09/03 05:50:05;;;;;;;;;;;11.80;99.90;;;;;;4957896;28;19933;-77
2023/09/03 05:52:31;;;;;;;;;;;11.80;99.90;;;;;;4973533;28;19922;-79
2023/09/03 05:54:56;;;;;;;;;;;11.80;99.90;;;;;;4973644;28;20022;-76
2023/09/03 05:57:22;;;;;;;;;;;11.90;99.90;;;;;;5006153;28;20365;-76
2023/09/03 05:59:48;;;;;;;;;;;11.90;99.90;;;;;;5006082;28;19926;-81
2023/09/03 06:02:14;;;;;;;;;;;11.90;99.90;;;;;;4977402;28;20449;-74
2023/09/03 06:04:39;;;;;;;;;;;11.90;99.90;;;;;;4977519;28;19922;-79
2023/09/03 06:07:06;;;;;;;;;;;12.00;99.90;;;;;;4978846;28;19922;-79
2023/09/03 06:09:32;;;;;;;;;;;12.00;99.90;;;;;;4961301;28;19922;-79
2023/09/03 06:11:57;;;;;;;;;;;12.10;99.90;;;;;;4994079;28;19973;-78
2023/09/03 06:14:23;;;;;;;;;;;12.20;99.90;;;;;;5009922;28;19922;-79
2023/09/03 06:16:48;;;;;;;;;;;12.20;99.90;;;;;;5009873;28;19922;-78
2023/09/03 06:19:14;;;;;;;;;;;12.30;99.90;;;;;;4978394;28;19926;-78
2023/09/03 06:21:40;;;;;;;;;;;12.40;99.90;;;;;;4977093;28;19962;-77
2023/09/03 06:24:05;;;;;;;;;;;12.40;99.90;;;;;;5009996;28;19922;-76
2023/09/03 06:26:31;;;;;;;;;;;12.50;99.90;;;;;;5009585;28;20294;-80
2023/09/03 06:28:57;;;;;;;;;;;12.60;99.90;;;;;;5009644;28;19929;-77
2023/09/03 06:31:22;;;;;;;;;;;12.60;99.90;;;;;;4976853;28;19922;-79
2023/09/03 06:33:48;;;;;;;;;;;12.70;99.90;;;;;;4978486;28;19945;-77
2023/09/03 06:36:15;;;;;;;;;;;12.80;99.90;;;;;;5009396;28;20018;-78
2023/09/03 06:38:43;;;;;;;;;;;12.80;99.90;;;;;;5009416;28;19922;-78
2023/09/03 06:41:09;;;;;;;;;;;12.90;99.90;;;;;;4976702;28;19933;-81
2023/09/03 06:43:35;;;;;;;;;;;13.00;99.90;;;;;;4976816;28;19965;-75
2023/09/03 06:46:00;;;;;;;;;;;13.00;99.90;;;;;;4992911;28;19965;-77
2023/09/03 06:48:26;;;;;;;;;;;13.10;99.90;;;;;;4976724;28;19923;-77
2023/09/03 06:50:52;;;;;;;;;;;13.10;99.90;;;;;;4976681;28;19969;-78
2023/09/03 06:53:17;;;;;;;;;;;13.20;99.90;;;;;;5010097;28;19945;-79
2023/09/03 06:55:44;;;;;;;;;;;13.20;99.90;;;;;;5009417;28;19922;-75
2023/09/03 06:58:10;;;;;;;;;;;13.30;99.90;;;;;;4978459;28;19922;-80
2023/09/03 07:00:35;;;;;;;;;;;13.40;99.90;;;;;;4992659;28;20008;-79
2023/09/03 07:03:01;;;;;;;;;;;13.50;99.90;;;;;;5009133;28;20403;-80
2023/09/03 07:05:26;;;;;;;;;;;13.60;99.90;;;;;;4977678;28;19923;-80
2023/09/03 07:07:52;;;;;;;;;;;13.70;99.90;;;;;;5008739;28;19929;-78
2023/09/03 07:10:17;;;;;;;;;;;13.80;99.90;;;;;;4976140;28;19929;-79
2023/09/03 07:12:43;;;;;;;;;;;13.90;99.90;;;;;;5007854;28;19929;-77
2023/09/03 07:15:09;;;;;;;;;;;14.00;99.90;;;;;;5008732;28;19922;-77
2023/09/03 07:17:34;;;;;;;;;;;14.10;99.90;;;;;;5008669;28;19925;-78
2023/09/03 07:20:00;;;;;;;;;;;14.20;99.90;;;;;;4977280;28;19926;-80
2023/09/03 07:22:25;;;;;;;;;;;14.20;99.90;;;;;;4977151;28;19977;-80
2023/09/03 07:24:52;;;;;;;;;;;14.40;99.90;;;;;;5008587;28;19929;-77
2023/09/03 07:27:17;;;;;;;;;;;14.50;99.90;;;;;;4976052;28;19922;-77
2023/09/03 07:29:43;;;;;;;;;;;14.60;99.90;;;;;;4977513;28;19961;-76
2023/09/03 07:32:08;;;;;;;;;;;14.70;99.90;;;;;;5008255;28;19922;-77
2023/09/03 07:34:34;;;;;;;;;;;14.80;99.90;;;;;;5008379;28;19926;-81
2023/09/03 07:37:00;;;;;;;;;;;15.00;99.90;;;;;;5008611;28;19922;-78
2023/09/03 07:39:25;;;;;;;;;;;15.10;99.90;;;;;;4977156;28;19926;-74
2023/09/03 07:41:56;;;;;;;;;;;15.20;99.90;;;;;;4977301;28;20291;-77
2023/09/03 07:44:23;;;;;;;;;;;15.30;99.90;;;;;;4975665;28;19922;-76
2023/09/03 07:46:48;;;;;;;;;;;15.50;99.90;;;;;;4977384;28;19922;-80
2023/09/03 07:49:15;;;;;;;;;;;15.60;99.90;;;;;;5008114;28;20065;-74
2023/09/03 07:51:41;;;;;;;;;;;15.70;99.90;;;;;;4975948;28;19922;-75
2023/09/03 07:54:06;;;;;;;;;;;15.80;99.90;;;;;;4977156;28;19923;-77
2023/09/03 07:56:32;;;;;;;;;;;15.90;99.90;;;;;;5007920;28;19922;-77
2023/09/03 07:58:57;;;;;;;;;;;16.10;99.90;;;;;;5008000;28;19965;-75
2023/09/03 08:01:23;;;;;;;;;;;16.10;99.90;;;;;;4975068;28;19926;-77
2023/09/03 08:03:48;;;;;;;;;;;16.20;99.90;;;;;;5007898;28;19989;-80
2023/09/03 08:06:14;;;;;;;;;;;16.30;99.90;;;;;;5007966;28;19925;-76
2023/09/03 08:08:39;;;;;;;;;;;16.30;99.90;;;;;;5007845;28;20346;-77
2023/09/03 08:11:05;;;;;;;;;;;16.40;99.90;;;;;;4975271;28;20347;-75
2023/09/03 08:13:31;;;;;;;;;;;16.40;99.90;;;;;;5007592;28;19922;-78
2023/09/03 08:15:56;;;;;;;;;;;16.50;99.90;;;;;;4976287;28;19972;-74
2023/09/03 08:18:22;;;;;;;;;;;16.50;99.90;;;;;;4976367;28;20295;-77
2023/09/03 08:20:48;;;;;;;;;;;16.60;99.90;;;;;;5007508;28;19926;-79
2023/09/03 08:23:14;;;;;;;;;;;16.70;99.90;;;;;;5007654;28;19926;-79
2023/09/03 08:25:40;;;;;;;;;;;16.70;99.90;;;;;;5007499;28;19945;-75
2023/09/03 08:28:09;;;;;;;;;;;16.80;99.90;;;;;;4976573;28;19973;-79
2023/09/03 08:30:34;;;;;;;;;;;16.80;99.90;;;;;;4959117;28;20268;-79
2023/09/03 08:33:00;;;;;;;;;;;16.90;99.90;;;;;;5007690;28;19930;-80
2023/09/03 08:35:27;;;;;;;;;;;17.00;99.90;;;;;;5007539;28;19922;-75
2023/09/03 08:37:52;;;;;;;;;;;17.10;99.90;;;;;;4959062;28;20001;-76
2023/09/03 08:40:18;;;;;;;;;;;17.20;99.90;;;;;;5007196;28;20018;-77
2023/09/03 08:42:46;;;;;;;;;;;17.20;99.90;;;;;;4976312;28;19926;-78
2023/09/03 08:45:12;;;;;;;;;;;17.30;99.90;;;;;;5007432;28;19925;-79
2023/09/03 08:47:41;;;;;;;;;;;17.30;99.90;;;;;;4975854;28;20383;-76
2023/09/03 08:50:07;;;;;;;;;;;17.40;99.90;;;;;;4975785;28;20433;-76
2023/09/03 08:52:34;;;;;;;;;;;17.50;99.90;;;;;;4975889;28;19945;-76
2023/09/03 08:55:00;;;;;;;;;;;17.50;99.90;;;;;;4974600;28;19922;-75
2023/09/03 08:57:26;;;;;;;;;;;17.50;99.90;;;;;;4975742;28;19922;-79
2023/09/03 08:59:52;;;;;;;;;;;17.50;99.90;;;;;;4974265;28;19926;-79
2023/09/03 09:02:18;;;;;;;;;;;17.60;99.90;;;;;;4974391;28;19929;-76
2023/09/03 09:04:44;;;;;;;;;;;17.70;99.90;;;;;;4958274;28;19929;-82
2023/09/03 09:07:10;;;;;;;;;;;17.80;99.90;;;;;;4974441;28;19973;-80
2023/09/03 09:09:35;;;;;;;;;;;17.90;99.90;;;;;;5007265;28;19926;-80
2023/09/03 09:12:13;;;;;;;;;;;17.90;99.90;;;;;;5006921;28;20381;-81
2023/09/03 09:14:49;;;;;;;;;;;17.90;99.90;;;;;;4958171;28;19922;-79
2023/09/03 09:17:14;;;;;;;;;;;18.00;99.90;;;;;;5006868;28;19926;-79
2023/09/03 09:19:40;;;;;;;;;;;18.10;99.90;;;;;;5006558;28;19984;-78
2023/09/03 09:22:05;;;;;;;;;;;18.20;99.90;;;;;;4975377;28;20318;-78
2023/09/03 09:24:39;;;;;;;;;;;18.30;99.90;;;;;;4974183;28;19922;-80
2023/09/03 09:27:18;;;;;;;;;;;18.30;99.90;;;;;;4974252;28;20033;-79
2023/09/03 09:29:44;;;;;;;;;;;18.30;99.90;;;;;;4974310;28;20273;-80
2023/09/03 09:32:20;;;;;;;;;;;18.40;99.90;;;;;;4974382;28;19922;-76
2023/09/03 09:34:46;;;;;;;;;;;18.40;99.90;;;;;;4974263;28;19930;-78
2023/09/03 09:37:12;;;;;;;;;;;18.50;99.90;;;;;;4973964;28;19922;-79
2023/09/03 09:39:45;;;;;;;;;;;18.50;99.90;;;;;;4973993;28;20013;-79
2023/09/03 09:42:13;;;;;;;;;;;18.50;99.90;;;;;;4973871;28;19922;-80
2023/09/03 09:45:02;;;;;;;;;;;18.70;99.90;;;;;;4973868;28;19972;-81
2023/09/03 09:47:28;;;;;;;;;;;18.60;99.90;;;;;;4974482;28;19973;-77
2023/09/03 09:49:54;;;;;;;;;;;18.70;99.90;;;;;;4974117;28;20412;-79
2023/09/03 09:52:19;;;;;;;;;;;18.70;99.90;;;;;;4973716;28;20371;-77
2023/09/03 09:54:46;;;;;;;;;;;18.80;99.90;;;;;;4974022;28;19972;-78
2023/09/03 09:57:12;;;;;;;;;;;18.80;99.90;;;;;;4975068;28;19928;-78
2023/09/03 09:59:39;;;;;;;;;;;18.90;99.90;;;;;;4973760;28;20065;-80
2023/09/03 10:02:12;;;;;;;;;;;19.00;99.90;;;;;;4974005;28;20080;-79
2023/09/03 10:04:45;;;;;;;;;;;19.10;99.90;;;;;;4973762;28;20008;-80
2023/09/03 10:07:10;;;;;;;;;;;19.20;99.90;;;;;;4957615;28;19922;-81
2023/09/03 10:09:37;;;;;;;;;;;19.30;99.90;;;;;;4974081;28;19922;-77
2023/09/03 10:12:06;;;;;;;;;;;19.40;99.90;;;;;;4973683;28;19929;-78
2023/09/03 10:14:32;;;;;;;;;;;19.50;99.90;;;;;;4973597;28;19922;-78
2023/09/03 10:16:59;;;;;;;;;;;19.50;99.90;;;;;;5006420;28;19933;-76
2023/09/03 10:19:32;;;;;;;;;;;19.50;99.90;;;;;;4973372;28;19934;-77
2023/09/03 10:21:59;;;;;;;;;;;19.60;99.90;;;;;;4973512;28;19922;-78
2023/09/03 10:24:25;;;;;;;;;;;19.70;99.90;;;;;;4973437;28;19972;-80
2023/09/03 10:26:54;;;;;;;;;;;19.70;99.90;;;;;;4989587;28;20388;-77
2023/09/03 10:29:22;;;;;;;;;;;19.70;99.90;;;;;;4973396;28;19923;-79
2023/09/03 10:31:49;;;;;;;;;;;19.80;99.90;;;;;;4973331;28;19922;-78
2023/09/03 10:34:17;;;;;;;;;;;19.80;99.90;;;;;;4989609;28;19929;-80
2023/09/03 10:37:01;;;;;;;;;;;20.00;99.90;;;;;;4973669;28;19981;-78
2023/09/03 10:39:27;;;;;;;;;;;20.10;99.90;;;;;;4973460;28;20368;-80
2023/09/03 10:42:11;;;;;;;;;;;20.10;99.90;;;;;;4957399;28;19930;-77
2023/09/03 10:44:40;;;;;;;;;;;20.20;99.90;;;;;;4974612;28;19969;-80
2023/09/03 10:47:05;;;;;;;;;;;20.20;99.90;;;;;;4973279;28;19929;-77
2023/09/03 10:49:41;;;;;;;;;;;20.30;99.90;;;;;;4976116;28;19922;-77
2023/09/03 10:52:25;;;;;;;;;;;20.40;99.90;;;;;;4978208;28;19922;-78
2023/09/03 10:55:17;;;;;;;;;;;20.50;99.90;;;;;;4976799;28;20454;-79
2023/09/03 10:57:43;;;;;;;;;;;20.50;99.90;;;;;;4975204;28;19922;-79
2023/09/03 11:00:10;;;;;;;;;;;20.60;99.90;;;;;;4960537;28;19977;-75
2023/09/03 11:02:37;;;;;;;;;;;20.60;99.90;;;;;;4976540;28;19922;-78
2023/09/03 11:05:12;;;;;;;;;;;20.70;99.90;;;;;;4975691;28;20308;-78
2023/09/03 11:07:38;;;;;;;;;;;20.80;99.90;;;;;;4957985;29;19922;-78
2023/09/03 11:10:28;;;;;;;;;;;20.80;99.90;;;;;;4957217;29;19926;-77
2023/09/03 11:12:54;;;;;;;;;;;20.90;99.90;;;;;;4989549;28;19923;-80
2023/09/03 11:15:20;;;;;;;;;;;20.80;99.90;;;;;;4989468;28;19923;-80
2023/09/03 11:17:52;;;;;;;;;;;20.80;99.90;;;;;;4957813;29;19922;-76
2023/09/03 11:20:28;;;;;;;;;;;20.80;99.90;;;;;;4957577;28;19949;-76
2023/09/03 11:22:54;;;;;;;;;;;20.90;99.90;;;;;;4957717;29;19954;-77
2023/09/03 11:25:30;;;;;;;;;;;21.00;99.90;;;;;;4941120;29;19922;-79
2023/09/03 11:27:56;;;;;;;;;;;21.10;99.90;;;;;;4956884;29;20398;-79
2023/09/03 11:30:21;;;;;;;;;;;21.30;99.90;;;;;;4989091;28;19923;-81
2023/09/03 11:32:47;;;;;;;;;;;21.40;99.90;;;;;;4957518;29;19927;-77
2023/09/03 11:35:12;;;;;;;;;;;21.40;99.90;;;;;;4972007;28;19929;-79
2023/09/03 11:37:38;;;;;;;;;;;21.30;99.90;;;;;;5008527;28;19922;-80
2023/09/03 11:40:04;;;;;;;;;;;21.30;99.90;;;;;;4975940;28;19977;-80
2023/09/03 11:42:29;;;;;;;;;;;21.30;99.90;;;;;;5008206;28;19922;-77
2023/09/03 11:44:55;;;;;;;;;;;21.30;99.90;;;;;;5008434;28;19973;-78
2023/09/03 11:47:20;;;;;;;;;;;21.30;99.90;;;;;;4975847;28;19926;-78
2023/09/03 11:49:47;;;;;;;;;;;21.40;99.90;;;;;;5008564;28;19929;-79
2023/09/03 11:52:14;;;;;;;;;;;21.50;99.90;;;;;;4976063;28;20295;-81
2023/09/03 11:54:41;;;;;;;;;;;21.60;99.90;;;;;;4976129;28;19922;-80
2023/09/03 11:57:08;;;;;;;;;;;21.60;99.90;;;;;;5008184;28;19922;-78
2023/09/03 11:59:34;;;;;;;;;;;21.70;99.90;;;;;;4975277;28;19930;-76
2023/09/03 12:02:02;;;;;;;;;;;21.90;99.90;;;;;;4991799;28;20331;-76
2023/09/03 12:04:28;;;;;;;;;;;22.00;99.90;;;;;;4976643;28;20384;-79
2023/09/03 12:06:54;;;;;;;;;;;22.00;99.90;;;;;;4975495;28;19922;-77
2023/09/03 12:09:21;;;;;;;;;;;22.00;99.90;;;;;;5008278;28;19929;-78
2023/09/03 12:11:46;;;;;;;;;;;22.00;99.90;;;;;;4975411;28;19922;-77
2023/09/03 12:14:12;;;;;;;;;;;22.00;99.90;;;;;;5008454;28;20272;-81
2023/09/03 12:16:47;;;;;;;;;;;22.10;99.90;;;;;;5008073;28;19969;-77
2023/09/03 12:19:12;;;;;;;;;;;22.30;99.90;;;;;;5007786;28;19929;-79
2023/09/03 12:21:38;;;;;;;;;;;22.50;99.90;;;;;;4976324;28;19926;-77
2023/09/03 12:24:07;;;;;;;;;;;22.50;99.90;;;;;;4975586;28;20008;-79
2023/09/03 12:26:35;;;;;;;;;;;22.60;99.90;;;;;;4975105;28;19922;-77
2023/09/03 12:29:03;;;;;;;;;;;22.70;99.90;;;;;;4991221;28;20395;-78
2023/09/03 12:31:41;;;;;;;;;;;22.80;99.90;;;;;;4975024;28;19926;-79
2023/09/03 12:34:08;;;;;;;;;;;22.90;99.90;;;;;;4975332;28;20005;-80
2023/09/03 12:36:33;;;;;;;;;;;22.80;99.90;;;;;;4975185;28;19929;-77
2023/09/03 12:39:00;;;;;;;;;;;22.70;99.90;;;;;;5007378;28;19922;-77
2023/09/03 12:41:26;;;;;;;;;;;22.80;99.90;;;;;;5007298;28;19926;-77
2023/09/03 12:43:52;;;;;;;;;;;22.90;99.90;;;;;;4974770;28;19922;-80
2023/09/03 12:46:18;;;;;;;;;;;22.90;99.90;;;;;;5007582;28;19923;-81
2023/09/03 12:48:44;;;;;;;;;;;23.00;99.90;;;;;;4975010;28;19977;-79
2023/09/03 12:51:11;;;;;;;;;;;22.90;99.90;;;;;;5006959;28;19926;-78
2023/09/03 12:53:39;;;;;;;;;;;22.90;99.90;;;;;;4976106;28;19930;-82
2023/09/03 12:56:05;;;;;;;;;;;23.10;99.90;;;;;;4974558;28;19980;-79
2023/09/03 12:58:31;;;;;;;;;;;23.20;99.90;;;;;;4974816;28;19989;-80
2023/09/03 13:00:57;;;;;;;;;;;23.30;99.90;;;;;;5006937;28;19934;-82
2023/09/03 13:03:22;;;;;;;;;;;23.20;99.90;;;;;;4974626;28;19922;-79
2023/09/03 13:05:48;;;;;;;;;;;23.30;99.90;;;;;;5006879;28;19944;-80
2023/09/03 13:08:13;;;;;;;;;;;23.40;99.90;;;;;;4990585;28;19926;-78
2023/09/03 13:10:39;;;;;;;;;;;23.30;99.90;;;;;;5006192;28;20314;-80
2023/09/03 13:13:05;;;;;;;;;;;23.40;99.90;;;;;;4974440;28;19926;-80
2023/09/03 13:15:30;;;;;;;;;;;23.20;99.90;;;;;;5006741;28;19968;-80
2023/09/03 13:17:56;;;;;;;;;;;23.10;99.90;;;;;;4975755;28;20006;-78
2023/09/03 13:20:22;;;;;;;;;;;23.00;99.90;;;;;;5006910;28;20306;-80
2023/09/03 13:22:47;;;;;;;;;;;22.90;99.90;;;;;;4974260;28;20375;-77
2023/09/03 13:25:13;;;;;;;;;;;22.80;99.90;;;;;;5006993;28;20334;-80
2023/09/03 13:27:38;;;;;;;;;;;22.90;99.90;;;;;;4975915;28;19922;-81
2023/09/03 13:30:04;;;;;;;;;;;22.90;99.90;;;;;;5007096;28;20415;-80
2023/09/03 13:32:31;;;;;;;;;;;22.90;99.90;;;;;;4975534;28;19984;-78
2023/09/03 13:34:56;;;;;;;;;;;22.90;99.90;;;;;;5006571;28;19922;-80
2023/09/03 13:37:22;;;;;;;;;;;22.90;99.90;;;;;;4974847;28;19922;-78
2023/09/03 13:39:47;;;;;;;;;;;22.90;99.90;;;;;;4974878;28;19992;-80
2023/09/03 13:42:13;;;;;;;;;;;22.90;99.90;;;;;;5007124;28;19945;-80
2023/09/03 13:44:38;;;;;;;;;;;22.70;99.90;;;;;;5006851;28;19930;-80
2023/09/03 13:47:05;;;;;;;;;;;22.70;99.90;;;;;;4975117;28;20275;-80
2023/09/03 13:49:31;;;;;;;;;;;22.60;99.90;;;;;;4974658;28;20352;-80
2023/09/03 13:51:56;;;;;;;;;;;22.50;99.90;;;;;;5006584;28;19968;-80
2023/09/03 13:54:22;;;;;;;;;;;22.30;99.90;;;;;;5006568;28;19922;-79
2023/09/03 13:56:47;;;;;;;;;;;22.30;99.90;;;;;;5006453;28;19922;-80
2023/09/03 13:59:13;;;;;;;;;;;22.10;99.90;;;;;;4973782;28;19922;-78
2023/09/03 14:01:38;;;;;;;;;;;22.10;99.90;;;;;;4973775;28;19927;-79
2023/09/03 14:04:04;;;;;;;;;;;22.10;99.90;;;;;;4973747;28;19926;-78
2023/09/03 14:06:30;;;;;;;;;;;22.20;99.90;;;;;;4973741;28;19970;-78
2023/09/03 14:08:56;;;;;;;;;;;22.30;99.90;;;;;;4973764;28;19922;-78
2023/09/03 14:11:22;;;;;;;;;;;22.30;99.90;;;;;;4973769;28;19922;-76
2023/09/03 14:13:48;;;;;;;;;;;22.30;99.90;;;;;;4973897;28;20009;-78
2023/09/03 14:16:17;;;;;;;;;;;22.20;99.90;;;;;;4974046;28;19926;-79
2023/09/03 14:18:43;;;;;;;;;;;22.20;99.90;;;;;;4973663;28;19962;-78
2023/09/03 14:21:09;;;;;;;;;;;22.10;99.90;;;;;;4973450;28;19969;-78
2023/09/03 14:23:34;;;;;;;;;;;22.20;99.90;;;;;;5009292;28;19933;-80
2023/09/03 14:26:00;;;;;;;;;;;22.40;99.90;;;;;;4977418;28;20335;-78
2023/09/03 14:28:25;;;;;;;;;;;22.40;99.90;;;;;;5010663;28;20029;-77
2023/09/03 14:30:51;;;;;;;;;;;22.30;99.90;;;;;;4977298;28;19945;-78
2023/09/03 14:33:17;;;;;;;;;;;22.30;99.90;;;;;;4977311;28;19922;-79
2023/09/03 14:35:42;;;;;;;;;;;22.20;99.90;;;;;;4977395;28;19973;-81
2023/09/03 14:38:08;;;;;;;;;;;22.10;99.90;;;;;;4977185;28;19922;-81
2023/09/03 14:40:33;;;;;;;;;;;22.00;99.90;;;;;;4977144;28;20013;-80
2023/09/03 14:42:59;;;;;;;;;;;22.00;99.90;;;;;;4977097;28;20012;-81
2023/09/03 14:45:25;;;;;;;;;;;21.90;99.90;;;;;;4977278;28;20342;-81
2023/09/03 14:47:50;;;;;;;;;;;21.90;99.90;;;;;;4978569;28;19945;-78
2023/09/03 14:50:17;;;;;;;;;;;21.90;99.90;;;;;;4993129;28;20287;-79
2023/09/03 14:52:43;;;;;;;;;;;21.80;99.90;;;;;;4977606;28;20004;-77
2023/09/03 14:55:09;;;;;;;;;;;21.90;99.90;;;;;;4978309;28;20335;-78
2023/09/03 14:57:34;;;;;;;;;;;22.00;99.90;;;;;;5009278;28;20276;-77
2023/09/03 15:00:00;;;;;;;;;;;22.10;99.90;;;;;;5009301;28;19926;-77
2023/09/03 15:02:25;;;;;;;;;;;22.10;99.90;;;;;;4976482;28;20013;-78
2023/09/03 15:04:51;;;;;;;;;;;22.00;99.90;;;;;;5009549;28;19937;-78
2023/09/03 15:07:16;;;;;;;;;;;22.00;99.90;;;;;;4976706;28;20367;-78
2023/09/03 15:09:42;;;;;;;;;;;21.90;99.90;;;;;;4977735;28;19965;-80
2023/09/03 15:12:07;;;;;;;;;;;21.90;99.90;;;;;;5009138;28;20012;-78
2023/09/03 15:14:33;;;;;;;;;;;21.80;99.90;;;;;;5009274;28;19928;-79
2023/09/03 15:16:58;;;;;;;;;;;21.70;99.90;;;;;;5009493;28;20311;-78
2023/09/03 15:19:24;;;;;;;;;;;21.70;99.90;;;;;;5009763;28;20386;-79
2023/09/03 15:21:49;;;;;;;;;;;21.80;99.90;;;;;;5008863;28;19926;-78
2023/09/03 15:24:15;;;;;;;;;;;21.80;99.90;;;;;;5008827;28;19922;-79
2023/09/03 15:26:41;;;;;;;;;;;21.70;99.90;;;;;;4976491;28;19922;-79
2023/09/03 15:29:06;;;;;;;;;;;21.70;99.90;;;;;;4977655;28;19930;-79
2023/09/03 15:31:33;;;;;;;;;;;21.70;99.90;;;;;;4976231;28;20009;-78
2023/09/03 15:33:59;;;;;;;;;;;21.70;99.90;;;;;;4975922;28;20020;-79
2023/09/03 15:36:25;;;;;;;;;;;21.70;99.90;;;;;;5008758;28;19981;-79
2023/09/03 15:38:50;;;;;;;;;;;21.80;99.90;;;;;;5008756;28;19926;-79
2023/09/03 15:41:17;;;;;;;;;;;21.80;99.90;;;;;;5008431;28;20354;-78
2023/09/03 15:43:42;;;;;;;;;;;21.90;99.90;;;;;;4975939;28;19940;-80
2023/09/03 15:46:08;;;;;;;;;;;22.00;99.90;;;;;;5008626;28;20018;-76
2023/09/03 15:48:34;;;;;;;;;;;22.00;99.90;;;;;;4975841;28;19922;-80
2023/09/03 15:50:59;;;;;;;;;;;22.00;99.90;;;;;;4975661;28;19926;-80
2023/09/03 15:53:25;;;;;;;;;;;22.10;99.90;;;;;;5008571;28;19992;-77
2023/09/03 15:55:55;;;;;;;;;;;22.20;99.90;;;;;;4976016;28;19929;-78
2023/09/03 15:58:22;;;;;;;;;;;22.20;99.90;;;;;;4959588;28;20009;-79
2023/09/03 16:00:47;;;;;;;;;;;22.20;99.90;;;;;;4975567;28;20353;-80
2023/09/03 16:03:13;;;;;;;;;;;22.10;99.90;;;;;;5008299;28;20013;-77
2023/09/03 16:05:43;;;;;;;;;;;22.10;99.90;;;;;;4975854;28;19965;-77
2023/09/03 16:08:08;;;;;;;;;;;21.90;99.90;;;;;;4975501;28;19922;-80
2023/09/03 16:10:35;;;;;;;;;;;21.80;99.90;;;;;;5008304;28;20314;-79
2023/09/03 16:13:01;;;;;;;;;;;21.80;99.90;;;;;;4975730;28;20435;-80
2023/09/03 16:15:26;;;;;;;;;;;21.80;99.90;;;;;;5007881;28;19961;-80
2023/09/03 16:17:52;;;;;;;;;;;21.80;99.90;;;;;;5007877;28;19926;-77
2023/09/03 16:20:18;;;;;;;;;;;21.80;99.90;;;;;;5007664;28;19933;-79
2023/09/03 16:22:43;;;;;;;;;;;21.70;99.90;;;;;;4975390;28;19986;-80
2023/09/03 16:25:09;;;;;;;;;;;21.70;99.90;;;;;;5008128;28;19929;-81
2023/09/03 16:27:34;;;;;;;;;;;21.70;99.90;;;;;;4975474;28;20300;-79
2023/09/03 16:30:00;;;;;;;;;;;21.70;99.90;;;;;;4976292;28;20292;-80
2023/09/03 16:32:25;;;;;;;;;;;21.70;99.90;;;;;;5007382;28;19922;-78
2023/09/03 16:34:51;;;;;;;;;;;21.60;99.90;;;;;;5007525;28;19963;-78
2023/09/03 16:37:18;;;;;;;;;;;21.60;99.90;;;;;;4974946;28;19988;-79
2023/09/03 16:39:43;;;;;;;;;;;21.50;99.90;;;;;;4975058;28;20017;-79
2023/09/03 16:42:09;;;;;;;;;;;21.50;99.90;;;;;;5007476;28;19950;-76
2023/09/03 16:44:34;;;;;;;;;;;21.50;99.90;;;;;;4975119;28;19926;-79
2023/09/03 16:47:00;;;;;;;;;;;21.40;99.90;;;;;;5006320;28;20307;-78
2023/09/03 16:49:25;;;;;;;;;;;21.40;99.90;;;;;;5007294;28;19956;-79
2023/09/03 16:51:51;;;;;;;;;;;21.30;99.90;;;;;;4958761;28;19961;-80
2023/09/03 16:54:16;;;;;;;;;;;21.30;99.90;;;;;;4976107;28;19930;-79
2023/09/03 16:56:42;;;;;;;;;;;21.30;99.90;;;;;;5007293;28;19961;-80
2023/09/03 16:59:08;;;;;;;;;;;21.20;99.90;;;;;;5007579;28;19922;-77
2023/09/03 17:01:33;;;;;;;;;;;21.20;99.90;;;;;;4975436;28;20017;-77
2023/09/03 17:03:59;;;;;;;;;;;21.20;99.90;;;;;;4974426;28;19965;-79
2023/09/03 17:06:25;;;;;;;;;;;21.20;99.90;;;;;;4975828;28;19972;-78
2023/09/03 17:08:50;;;;;;;;;;;21.10;99.90;;;;;;5007113;28;19961;-76
2023/09/03 17:11:16;;;;;;;;;;;21.10;99.90;;;;;;5006986;28;20036;-78
2023/09/03 17:13:41;;;;;;;;;;;21.10;99.90;;;;;;4958432;28;19929;-80
2023/09/03 17:16:12;;;;;;;;;;;21.00;99.90;;;;;;5007284;28;20069;-78
2023/09/03 17:18:37;;;;;;;;;;;21.00;99.90;;;;;;4974609;28;20279;-79
2023/09/03 17:21:03;;;;;;;;;;;21.00;99.90;;;;;;4975669;28;19941;-77
2023/09/03 17:23:28;;;;;;;;;;;21.00;99.90;;;;;;4974494;28;19922;-77
2023/09/03 17:25:54;;;;;;;;;;;20.90;99.90;;;;;;4958235;28;20065;-79
2023/09/03 17:28:19;;;;;;;;;;;20.90;99.90;;;;;;5006929;28;19977;-80
2023/09/03 17:30:45;;;;;;;;;;;20.80;99.90;;;;;;4973998;28;19949;-77
2023/09/03 17:33:11;;;;;;;;;;;20.80;99.90;;;;;;4975549;28;19922;-78
2023/09/03 17:35:36;;;;;;;;;;;20.80;99.90;;;;;;5006590;28;19922;-80
2023/09/03 17:38:02;;;;;;;;;;;20.70;99.90;;;;;;4974211;28;19973;-79
2023/09/03 17:40:27;;;;;;;;;;;20.70;99.90;;;;;;4975144;28;19926;-78
2023/09/03 17:42:53;;;;;;;;;;;20.60;99.90;;;;;;5006820;28;19973;-79
2023/09/03 17:45:19;;;;;;;;;;;20.60;99.90;;;;;;4974144;28;20343;-80
2023/09/03 17:47:45;;;;;;;;;;;20.60;99.90;;;;;;4974099;28;19926;-78
2023/09/03 17:50:10;;;;;;;;;;;20.50;99.90;;;;;;4974202;28;20431;-80
2023/09/03 17:52:36;;;;;;;;;;;20.50;99.90;;;;;;5006341;28;20299;-77
2023/09/03 17:55:01;;;;;;;;;;;20.40;99.90;;;;;;4974930;28;19922;-78
2023/09/03 17:57:27;;;;;;;;;;;20.40;99.90;;;;;;4976380;28;20024;-81
2023/09/03 17:59:53;;;;;;;;;;;20.30;99.90;;;;;;4977801;28;19926;-78
2023/09/03 18:02:18;;;;;;;;;;;20.30;99.90;;;;;;5010409;28;19922;-80
2023/09/03 18:04:44;;;;;;;;;;;20.20;99.90;;;;;;5010348;28;19965;-80
2023/09/03 18:07:09;;;;;;;;;;;20.10;99.90;;;;;;4979308;28;20012;-78
2023/09/03 18:09:35;;;;;;;;;;;20.10;99.90;;;;;;5010228;28;19945;-80
2023/09/03 18:12:01;;;;;;;;;;;20.00;99.90;;;;;;5010260;28;19973;-79